createdAt,value
2018-10-11T00:01:00.309Z,11.80
2018-10-11T00:03:28.457Z,11.30
2018-10-11T00:05:56.590Z,11.60
2018-10-11T00:08:24.692Z,11.20
2018-10-11T00:10:52.802Z,11.10
2018-10-11T00:13:20.906Z,11.50
2018-10-11T00:15:49.010Z,11.73
2018-10-11T00:18:17.131Z,11.57
2018-10-11T00:20:45.261Z,11.80
2018-10-11T00:23:13.436Z,11.03
2018-10-11T00:25:41.567Z,11.77
2018-10-11T00:28:09.675Z,11.17
2018-10-11T00:30:37.878Z,11.53
2018-10-11T00:33:06.038Z,12.60
2018-10-11T00:35:34.138Z,11.80
2018-10-11T00:38:02.263Z,12.80
2018-10-11T00:40:30.389Z,12.37
2018-10-11T00:42:58.506Z,12.17
2018-10-11T00:45:26.625Z,11.97
2018-10-11T00:47:54.785Z,11.63
2018-10-11T00:50:23.095Z,12.00
2018-10-11T00:52:51.286Z,12.53
2018-10-11T00:55:19.403Z,12.10
2018-10-11T00:57:47.528Z,11.83
2018-10-11T01:00:15.662Z,12.10
2018-10-11T01:02:43.798Z,11.63
2018-10-11T01:05:11.958Z,12.07
2018-10-11T01:07:40.236Z,11.80
2018-10-11T01:10:08.566Z,12.90
2018-10-11T01:12:36.685Z,11.70
2018-10-11T01:15:05.211Z,11.97
2018-10-11T01:17:33.354Z,12.30
2018-10-11T01:20:01.473Z,12.43
2018-10-11T01:22:29.622Z,12.33
2018-10-11T01:24:57.714Z,12.20
2018-10-11T01:27:25.960Z,12.47
2018-10-11T01:29:54.203Z,12.50
2018-10-11T01:32:22.246Z,12.37
2018-10-11T01:34:50.370Z,12.43
2018-10-11T01:37:18.482Z,12.13
2018-10-11T01:39:46.615Z,12.60
2018-10-11T01:42:14.727Z,12.07
2018-10-11T01:44:42.865Z,12.37
2018-10-11T01:47:11.008Z,12.37
2018-10-11T01:49:39.132Z,13.00
2018-10-11T01:52:07.278Z,12.27
2018-10-11T01:54:35.394Z,13.23
2018-10-11T01:57:03.533Z,11.63
2018-10-11T01:59:31.650Z,12.67
2018-10-11T02:01:59.771Z,13.43
2018-10-11T02:04:28.055Z,12.80
2018-10-11T02:06:56.189Z,12.90
2018-10-11T02:09:24.616Z,13.10
2018-10-11T02:11:52.647Z,12.87
2018-10-11T02:14:20.790Z,13.10
2018-10-11T02:16:48.943Z,13.17
2018-10-11T02:19:17.183Z,12.63
2018-10-11T02:21:45.318Z,13.43
2018-10-11T02:24:13.441Z,12.30
2018-10-11T02:26:41.585Z,12.67
2018-10-11T02:29:10.112Z,13.00
2018-10-11T02:31:38.245Z,13.00
2018-10-11T02:34:06.375Z,13.07
2018-10-11T02:36:34.508Z,13.20
2018-10-11T02:39:10.142Z,13.13
2018-10-11T02:41:38.438Z,13.37
2018-10-11T02:44:06.558Z,13.63
2018-10-11T02:46:34.703Z,13.20
2018-10-11T02:49:02.809Z,12.80
2018-10-11T02:51:30.909Z,13.53
2018-10-11T02:53:59.040Z,13.07
2018-10-11T02:56:27.211Z,13.40
2018-10-11T02:59:06.794Z,13.97
2018-10-11T03:01:34.918Z,12.97
2018-10-11T03:04:04.910Z,12.57
2018-10-11T03:06:35.278Z,13.80
2018-10-11T03:09:04.869Z,13.93
2018-10-11T03:11:32.989Z,13.30
2018-10-11T03:14:01.094Z,14.23
2018-10-11T03:16:29.230Z,12.90
2018-10-11T03:18:57.430Z,13.07
2018-10-11T03:21:25.582Z,13.63
2018-10-11T03:23:53.716Z,13.33
2018-10-11T03:26:21.834Z,12.80
2018-10-11T03:28:49.939Z,13.47
2018-10-11T03:31:18.043Z,13.90
2018-10-11T03:33:46.160Z,13.90
2018-10-11T03:36:14.297Z,13.73
2018-10-11T03:38:42.442Z,13.53
2018-10-11T03:41:10.572Z,13.80
2018-10-11T03:43:38.694Z,14.03
2018-10-11T03:46:07.011Z,13.80
2018-10-11T03:48:35.146Z,13.03
2018-10-11T03:51:03.270Z,13.70
2018-10-11T03:53:31.402Z,13.80
2018-10-11T03:55:59.555Z,12.60
2018-10-11T03:58:27.903Z,12.93
2018-10-11T04:00:56.038Z,13.43
2018-10-11T04:03:24.186Z,13.00
2018-10-11T04:05:52.338Z,13.40
2018-10-11T04:08:20.455Z,13.43
2018-10-11T04:10:48.566Z,14.27
2018-10-11T04:13:16.705Z,14.17
2018-10-11T04:15:45.006Z,13.70
2018-10-11T04:18:13.120Z,13.27
2018-10-11T04:20:41.283Z,13.63
2018-10-11T04:23:13.655Z,14.13
2018-10-11T04:25:41.792Z,13.33
2018-10-11T04:28:09.959Z,14.00
2018-10-11T04:30:38.722Z,13.20
2018-10-11T04:33:06.885Z,13.47
2018-10-11T04:35:35.152Z,13.80
2018-10-11T04:38:03.342Z,13.83
2018-10-11T04:40:31.506Z,12.40
2018-10-11T04:42:59.767Z,12.93
2018-10-11T04:45:27.918Z,14.27
2018-10-11T04:47:56.026Z,13.67
2018-10-11T04:50:24.146Z,13.30
2018-10-11T04:52:52.274Z,14.10
2018-10-11T04:55:20.378Z,13.60
2018-10-11T04:57:48.537Z,13.13
2018-10-11T05:00:16.690Z,13.47
2018-10-11T05:02:44.830Z,13.40
2018-10-11T05:05:13.017Z,13.57
2018-10-11T05:07:41.138Z,13.27
2018-10-11T05:10:09.593Z,14.17
2018-10-11T05:12:37.763Z,13.37
2018-10-11T05:15:06.423Z,13.40
2018-10-11T05:17:34.555Z,12.93
2018-10-11T05:20:02.682Z,13.93
2018-10-11T05:22:30.792Z,14.13
2018-10-11T05:24:58.969Z,13.13
2018-10-11T05:27:27.084Z,12.83
2018-10-11T05:29:55.295Z,13.43
2018-10-11T05:32:23.602Z,14.07
2018-10-11T05:34:51.570Z,13.60
2018-10-11T05:37:19.708Z,12.53
2018-10-11T05:39:47.950Z,13.87
2018-10-11T05:42:16.585Z,14.67
2018-10-11T05:44:44.921Z,13.93
2018-10-11T05:47:13.054Z,14.00
2018-10-11T05:49:41.303Z,14.40
2018-10-11T05:52:09.460Z,14.13
2018-10-11T05:54:37.611Z,14.07
2018-10-11T05:57:05.794Z,14.03
2018-10-11T05:59:33.943Z,13.27
2018-10-11T06:02:02.169Z,13.03
2018-10-11T06:04:30.290Z,14.07
2018-10-11T06:06:58.415Z,13.60
2018-10-11T06:09:26.575Z,13.43
2018-10-11T06:11:54.755Z,13.77
2018-10-11T06:14:22.838Z,13.87
2018-10-11T06:16:50.978Z,14.03
2018-10-11T06:19:19.101Z,13.47
2018-10-11T06:21:47.223Z,13.97
2018-10-11T06:24:15.349Z,14.53
2018-10-11T06:26:43.544Z,13.47
2018-10-11T06:29:12.267Z,14.07
2018-10-11T06:31:40.522Z,13.53
2018-10-11T06:34:08.714Z,13.57
2018-10-11T06:36:37.002Z,14.57
2018-10-11T06:39:07.779Z,14.17
2018-10-11T06:41:36.019Z,13.27
2018-10-11T06:44:04.186Z,13.93
2018-10-11T06:46:32.311Z,14.27
2018-10-11T06:49:00.439Z,14.47
2018-10-11T06:51:28.598Z,14.27
2018-10-11T06:53:56.742Z,13.50
2018-10-11T06:56:24.869Z,13.93
2018-10-11T06:58:53.013Z,14.37
2018-10-11T07:01:21.150Z,14.30
2018-10-11T07:03:49.290Z,13.73
2018-10-11T07:06:17.460Z,13.87
2018-10-11T07:11:52.486Z,13.53
2018-10-11T07:14:20.611Z,13.73
2018-10-11T07:16:48.788Z,13.87
2018-10-11T07:19:17.021Z,13.87
2018-10-11T07:21:45.116Z,13.70
2018-10-11T07:24:13.244Z,13.17
2018-10-11T07:26:41.420Z,14.10
2018-10-11T07:29:09.574Z,14.13
2018-10-11T07:31:37.794Z,13.77
2018-10-11T07:34:05.955Z,14.47
2018-10-11T07:36:34.144Z,14.57
2018-10-11T07:39:02.326Z,14.00
2018-10-11T07:41:30.438Z,13.80
2018-10-11T07:43:58.569Z,13.87
2018-10-11T07:46:26.709Z,14.43
2018-10-11T07:48:54.854Z,14.03
2018-10-11T07:51:22.987Z,14.43
2018-10-11T07:53:51.269Z,14.93
2018-10-11T07:56:19.399Z,14.07
2018-10-11T07:58:47.555Z,14.03
2018-10-11T08:01:15.848Z,14.77
2018-10-11T08:03:43.950Z,14.70
2018-10-11T08:06:12.102Z,13.70
2018-10-11T08:08:40.227Z,14.20
2018-10-11T08:11:08.586Z,13.80
2018-10-11T08:13:36.543Z,14.57
2018-10-11T08:16:04.775Z,14.17
2018-10-11T08:18:32.990Z,13.73
2018-10-11T08:21:01.130Z,14.60
2018-10-11T08:23:29.300Z,14.70
2018-10-11T08:25:57.950Z,15.03
2018-10-11T08:28:25.606Z,14.37
2018-10-11T08:30:53.832Z,14.83
2018-10-11T08:33:22.958Z,14.57
2018-10-11T08:35:51.102Z,14.90
2018-10-11T08:38:19.376Z,14.17
2018-10-11T08:40:47.464Z,13.70
2018-10-11T08:43:15.683Z,14.93
2018-10-11T08:45:43.907Z,14.17
2018-10-11T08:48:12.082Z,13.67
2018-10-11T08:50:40.288Z,15.60
2018-10-11T08:53:09.130Z,13.90
2018-10-11T08:55:37.555Z,14.37
2018-10-11T08:58:05.753Z,13.73
2018-10-11T09:00:33.970Z,14.10
2018-10-11T09:03:02.278Z,13.77
2018-10-11T09:05:31.499Z,13.90
2018-10-11T09:07:59.655Z,13.53
2018-10-11T09:10:38.108Z,13.70
2018-10-11T09:12:56.042Z,13.60
2018-10-11T09:15:24.501Z,13.33
2018-10-11T09:17:52.857Z,13.33
2018-10-11T09:20:21.134Z,13.63
2018-10-11T09:22:49.271Z,13.60
2018-10-11T09:25:17.446Z,13.83
2018-10-11T09:27:45.602Z,13.70
2018-10-11T09:30:13.828Z,12.90
2018-10-11T09:32:41.926Z,13.37
2018-10-11T09:35:10.135Z,13.63
2018-10-11T09:37:38.766Z,12.70
2018-10-11T09:40:07.028Z,14.17
2018-10-11T09:42:35.141Z,13.60
2018-10-11T09:45:03.490Z,14.00
2018-10-11T09:47:31.626Z,12.47
2018-10-11T09:49:59.809Z,13.33
2018-10-11T09:52:28.024Z,13.63
2018-10-11T09:54:56.588Z,14.47
2018-10-11T09:57:26.070Z,13.43
2018-10-11T09:59:54.471Z,13.80
2018-10-11T10:02:23.502Z,14.03
2018-10-11T10:04:53.210Z,13.10
2018-10-11T10:07:21.822Z,13.47
2018-10-11T10:09:50.207Z,13.43
2018-10-11T10:12:18.549Z,13.63
2018-10-11T10:14:47.283Z,13.33
2018-10-11T10:17:15.456Z,13.23
2018-10-11T10:19:44.046Z,12.80
2018-10-11T10:22:12.174Z,13.77
2018-10-11T10:24:40.301Z,14.47
2018-10-11T10:27:08.825Z,13.40
2018-10-11T10:29:37.092Z,13.70
2018-10-11T10:32:05.618Z,13.47
2018-10-11T10:34:33.854Z,13.40
2018-10-11T10:37:02.187Z,13.00
2018-10-11T10:39:30.326Z,13.27
2018-10-11T10:41:58.497Z,12.50
2018-10-11T10:44:26.617Z,13.90
2018-10-11T10:46:54.741Z,13.57
2018-10-11T10:49:22.966Z,12.90
2018-10-11T10:51:51.131Z,13.10
2018-10-11T10:54:25.510Z,12.57
2018-10-11T10:56:53.628Z,13.53
2018-10-11T10:59:21.792Z,12.93
2018-10-11T11:01:50.051Z,12.53
2018-10-11T11:04:18.225Z,13.07
2018-10-11T11:06:46.431Z,12.73
2018-10-11T11:09:15.110Z,12.83
2018-10-11T11:11:43.715Z,12.80
2018-10-11T11:14:13.044Z,13.33
2018-10-11T11:16:41.493Z,13.50
2018-10-11T11:19:10.006Z,13.50
2018-10-11T11:21:38.152Z,14.03
2018-10-11T11:24:06.427Z,13.40
2018-10-11T11:26:34.582Z,12.80
2018-10-11T11:29:02.753Z,13.07
2018-10-11T11:31:31.438Z,13.40
2018-10-11T11:34:00.044Z,12.83
2018-10-11T11:36:28.249Z,12.37
2018-10-11T11:39:02.737Z,12.83
2018-10-11T11:41:31.034Z,13.00
2018-10-11T11:43:59.189Z,13.07
2018-10-11T11:46:27.337Z,12.73
2018-10-11T11:48:55.480Z,13.47
2018-10-11T11:51:23.615Z,13.63
2018-10-11T11:53:51.801Z,14.23
2018-10-11T11:56:19.976Z,16.77
2018-10-11T11:58:48.227Z,13.00
2018-10-11T12:01:16.458Z,15.37
2018-10-11T12:03:44.603Z,14.03
2018-10-11T12:06:12.723Z,16.00
2018-10-11T13:07:25.701Z,31.30
2018-10-11T13:09:53.935Z,24.73
2018-10-11T13:12:22.120Z,24.63
2018-10-11T13:14:50.254Z,24.63
2018-10-11T13:39:15.434Z,35.17
2018-10-11T13:41:43.850Z,30.43
2018-10-11T13:44:11.896Z,31.30
2018-10-11T13:46:40.066Z,30.20
2018-10-11T13:49:08.325Z,35.67
2018-10-11T13:51:36.523Z,32.73
2018-10-11T13:54:04.726Z,35.30
2018-10-11T13:56:32.962Z,34.60
2018-10-11T13:59:05.013Z,31.57
2018-10-11T14:01:29.355Z,32.93
2018-10-11T14:03:57.621Z,35.40
2018-10-11T14:06:25.806Z,48.87
2018-10-11T14:08:54.006Z,31.27
2018-10-11T14:11:22.379Z,37.07
2018-10-11T14:13:50.627Z,42.27
2018-10-11T14:16:18.881Z,31.30
2018-10-11T14:18:47.037Z,38.27
2018-10-11T14:21:15.167Z,48.97
2018-10-11T14:23:43.488Z,40.10
2018-10-11T14:26:12.055Z,40.80
2018-10-11T14:28:40.222Z,33.57
2018-10-11T14:31:08.363Z,34.53
2018-10-11T14:33:36.586Z,31.90
2018-10-11T14:36:04.820Z,36.20
2018-10-11T14:38:33.802Z,43.10
2018-10-11T14:41:02.169Z,32.23
2018-10-11T14:43:30.458Z,58.03
2018-10-11T14:45:58.564Z,34.60
2018-10-11T14:48:26.734Z,29.87
2018-10-11T14:50:54.905Z,35.80
2018-10-11T14:53:23.488Z,43.73
2018-10-11T14:55:51.693Z,35.90
2018-10-11T14:58:19.909Z,34.07
2018-10-11T15:00:48.083Z,37.13
2018-10-11T15:03:16.311Z,29.17
2018-10-11T15:05:44.490Z,27.63
2018-10-11T15:08:12.756Z,32.70
2018-10-11T15:10:41.219Z,37.23
2018-10-11T15:13:09.326Z,27.93
2018-10-11T15:15:37.515Z,46.00
2018-10-11T15:18:05.935Z,52.97
2018-10-11T15:20:34.110Z,37.00
2018-10-11T15:23:02.259Z,28.73
2018-10-11T15:25:30.434Z,32.87
2018-10-11T15:27:58.625Z,48.30
2018-10-11T15:30:26.751Z,44.70
2018-10-11T15:32:54.950Z,48.37
2018-10-11T15:35:23.215Z,32.00
2018-10-11T15:37:51.510Z,39.00
2018-10-11T15:40:19.916Z,39.83
2018-10-11T15:42:48.347Z,60.63
2018-10-11T15:45:16.404Z,42.40
2018-10-11T15:47:44.558Z,21.43
2018-10-11T16:24:36.726Z,23.77
2018-10-11T16:33:03.788Z,19.27
2018-10-11T16:35:54.160Z,36.87
2018-10-11T16:38:45.367Z,15.10
2018-10-11T16:41:17.059Z,35.27
2018-10-11T16:43:53.949Z,38.57
2018-10-11T16:46:45.319Z,47.43
2018-10-11T16:49:13.985Z,41.33
2018-10-11T16:51:42.172Z,32.60
2018-10-11T16:54:10.339Z,26.27
2018-10-11T16:56:38.466Z,32.67
2018-10-11T16:59:07.010Z,35.30
2018-10-11T17:01:35.771Z,72.30
2018-10-11T17:04:03.926Z,64.73
2018-10-11T17:06:32.057Z,43.60
2018-10-11T17:09:14.388Z,34.77
2018-10-11T17:11:42.591Z,35.40
2018-10-11T17:14:17.344Z,35.10
2018-10-11T17:16:45.499Z,31.23
2018-10-11T17:19:13.707Z,47.63
2018-10-11T17:21:43.259Z,45.23
2018-10-11T17:24:11.347Z,35.03
2018-10-11T17:26:39.526Z,32.33
2018-10-11T17:29:07.811Z,33.93
2018-10-11T17:31:35.970Z,31.90
2018-10-11T17:37:14.099Z,31.23
2018-10-11T17:39:42.238Z,94.40
2018-10-11T17:42:10.473Z,27.53
2018-10-11T17:44:38.543Z,20.60
2018-10-11T17:47:07.167Z,37.83
2018-10-11T17:49:35.411Z,20.07
2018-10-11T17:52:03.551Z,22.27
2018-10-11T17:54:31.735Z,25.40
2018-10-11T17:56:59.875Z,19.80
2018-10-11T17:59:28.037Z,18.10
2018-10-11T18:01:56.184Z,15.97
2018-10-11T18:04:24.298Z,15.87
2018-10-11T18:06:52.438Z,22.13
2018-10-11T18:09:20.567Z,20.80
2018-10-11T18:11:48.698Z,16.50
2018-10-11T18:14:16.971Z,16.03
2018-10-11T18:16:45.144Z,20.97
2018-10-11T18:19:13.317Z,20.40
2018-10-11T18:21:41.533Z,15.40
2018-10-11T18:24:09.742Z,15.33
2018-10-11T18:26:37.898Z,14.73
2018-10-11T18:29:06.243Z,17.27
2018-10-11T18:31:34.314Z,19.77
2018-10-11T18:34:02.463Z,16.97
2018-10-11T18:36:30.613Z,16.50
2018-10-11T18:38:58.749Z,16.43
2018-10-11T18:41:26.903Z,15.00
2018-10-11T18:43:55.037Z,17.00
2018-10-11T18:46:23.208Z,18.97
2018-10-11T18:48:51.327Z,16.63
2018-10-11T18:51:19.549Z,16.47
2018-10-11T18:53:47.670Z,18.77
2018-10-11T18:56:15.917Z,16.33
2018-10-11T18:58:44.083Z,17.43
2018-10-11T19:01:12.250Z,14.47
2018-10-11T19:03:40.364Z,14.40
2018-10-11T19:06:08.523Z,14.43
2018-10-11T19:08:36.686Z,14.57
2018-10-11T19:11:04.826Z,14.43
2018-10-11T19:13:33.003Z,13.77
2018-10-11T19:16:01.134Z,13.70
2018-10-11T19:18:29.292Z,14.43
2018-10-11T19:20:57.475Z,13.73
2018-10-11T19:23:25.607Z,13.90
2018-10-11T19:25:53.709Z,13.80
2018-10-11T19:28:21.826Z,16.30
2018-10-11T19:30:50.106Z,15.20
2018-10-11T19:33:18.301Z,14.93
2018-10-11T19:35:46.368Z,15.20
2018-10-11T19:38:14.499Z,16.30
2018-10-11T19:40:42.691Z,13.43
2018-10-11T19:43:10.854Z,13.20
2018-10-11T19:45:39.066Z,13.10
2018-10-11T19:48:07.185Z,14.80
2018-10-11T19:50:35.623Z,14.50
2018-10-11T19:53:03.795Z,14.40
2018-10-11T19:55:31.946Z,13.97
2018-10-11T19:58:00.106Z,14.57
2018-10-11T20:00:28.206Z,14.17
2018-10-11T20:02:56.335Z,12.60
2018-10-11T20:05:24.513Z,12.97
2018-10-11T20:07:52.715Z,13.93
2018-10-11T20:10:21.553Z,13.50
2018-10-11T20:12:49.903Z,14.37
2018-10-11T20:15:18.062Z,13.63
2018-10-11T20:17:46.227Z,13.83
2018-10-11T20:20:14.357Z,14.10
2018-10-11T20:22:42.484Z,14.07
2018-10-11T20:25:10.618Z,14.07
2018-10-11T20:27:38.730Z,13.63
2018-10-11T20:30:06.966Z,13.27
2018-10-11T20:32:35.098Z,13.63
2018-10-11T20:35:03.202Z,14.03
2018-10-11T20:37:31.346Z,12.93
2018-10-11T20:39:59.467Z,13.53
2018-10-11T20:42:27.587Z,14.20
2018-10-11T20:44:55.702Z,13.07
2018-10-11T20:47:23.870Z,13.63
2018-10-11T20:49:51.999Z,14.03
2018-10-11T20:52:20.127Z,13.43
2018-10-11T20:54:48.253Z,13.70
2018-10-11T20:57:16.379Z,13.43
2018-10-11T20:59:44.538Z,14.13
2018-10-11T21:02:12.668Z,13.80
2018-10-11T21:04:40.775Z,13.27
2018-10-11T21:07:08.899Z,13.00
2018-10-11T21:09:37.059Z,13.20
2018-10-11T21:12:05.170Z,13.13
2018-10-11T21:14:33.323Z,13.00
2018-10-11T21:17:01.479Z,13.67
2018-10-11T21:19:29.619Z,14.27
2018-10-11T21:21:57.755Z,13.53
2018-10-11T21:24:25.928Z,13.80
2018-10-11T21:26:54.128Z,13.87
2018-10-11T21:29:22.280Z,13.60
2018-10-11T21:31:50.410Z,14.90
2018-10-11T21:34:18.629Z,14.30
2018-10-11T21:36:46.739Z,14.63
2018-10-11T21:39:14.859Z,14.77
2018-10-11T21:41:43.013Z,15.30
2018-10-11T21:44:11.275Z,15.83
2018-10-11T21:46:39.480Z,15.83
2018-10-11T21:49:07.611Z,15.63
2018-10-11T21:51:35.754Z,17.30
2018-10-11T21:54:03.910Z,17.70
2018-10-11T21:56:32.053Z,17.93
2018-10-11T21:59:00.263Z,18.73
2018-10-11T22:01:28.419Z,18.60
2018-10-11T22:03:56.546Z,19.47
2018-10-11T22:06:24.695Z,21.13
2018-10-11T22:08:52.880Z,20.30
2018-10-11T22:11:21.026Z,20.93
2018-10-11T22:13:49.174Z,21.93
2018-10-11T22:16:17.326Z,21.40
2018-10-11T22:18:45.465Z,22.87
2018-10-11T22:21:13.607Z,23.23
2018-10-11T22:23:42.830Z,24.90
2018-10-11T22:26:11.617Z,25.27
2018-10-11T22:28:40.319Z,26.87
2018-10-11T22:31:09.450Z,25.57
2018-10-11T22:33:37.603Z,27.90
2018-10-11T22:36:05.749Z,29.40
2018-10-11T22:38:33.879Z,29.87
2018-10-11T22:41:02.094Z,32.23
2018-10-11T22:43:30.725Z,33.90
2018-10-11T22:45:58.823Z,35.17
2018-10-11T22:48:26.945Z,36.47
2018-10-11T22:50:55.069Z,37.00
2018-10-11T22:53:23.272Z,39.83
2018-10-11T22:55:51.482Z,39.43
2018-10-11T22:58:19.590Z,41.23
2018-10-11T23:00:47.707Z,41.20
2018-10-11T23:03:15.842Z,43.47
2018-10-11T23:05:44.036Z,45.00
2018-10-11T23:08:12.187Z,44.20
2018-10-11T23:10:40.349Z,48.37
2018-10-11T23:13:08.475Z,49.97
2018-10-11T23:15:36.574Z,52.10
2018-10-11T23:18:04.707Z,53.43
2018-10-11T23:20:32.840Z,57.47
2018-10-11T23:23:00.968Z,54.60
2018-10-11T23:25:29.078Z,59.57
2018-10-11T23:27:57.182Z,61.33
2018-10-11T23:30:25.303Z,63.97
2018-10-11T23:32:53.406Z,67.17
2018-10-11T23:35:21.507Z,68.07
2018-10-11T23:37:49.663Z,70.20
2018-10-11T23:40:17.770Z,74.03
2018-10-11T23:42:45.978Z,75.23
2018-10-11T23:45:14.090Z,78.70
2018-10-11T23:47:43.051Z,80.33
2018-10-11T23:50:11.202Z,89.40
2018-10-11T23:52:39.609Z,87.83
2018-10-11T23:55:08.189Z,86.30
2018-10-11T23:57:36.313Z,88.03
